Latest Coastal Weather Observations for Christmas Island

IDW60701

Issued at 7:53 pm WST Thursday 23 February 2017 (issued every 10 minutes, with the page automatically refreshed every 10 minutes)

About coastal observations | Map of coastal stations | Coastal observations for WA | Marine services | Other Formats
Station Details ID: 200790 Name: CHRISTMAS ISLAND AERO Lat: -10.45 Lon: 105.69 Height: 261.0 m
Data from the previous 72 hours. | See also: Recent months at Christmas Island
Date/Time
WST
Temp
°C
Wind Pressure Rain since
9am
mm
Weather Cloud Vis
km
Sea
Height
m
Swell
Dir  Spd
kts
Gust
kts
hPa Trend Height
m
Period
s
Dir
23/07:30pm 25.9 SE 7 9 1013.0 - 2.6 - Partly cloudy 10 - - - -
23/07:00pm 26.0 SE 7 9 1011.0 - 2.6 - Cloudy 10 - - - -
23/06:56pm 26.0 SE 6 9 1012.6 - 2.6 - Partly cloudy 10 - - - -
23/06:30pm 26.0 SE 7 10 1012.2 - 2.6 - Partly cloudy 10 - - - -
23/06:00pm 26.6 SE 8 11 1011.9 - 2.6 - Partly cloudy 10 - - - -
23/05:30pm 26.8 SE 8 14 1011.8 - 2.6 - Partly cloudy 10 - - - -
23/05:00pm 26.8 ESE 7 10 1011.9 - 2.6 - Partly cloudy 10 - - - -
23/04:58pm 26.8 ESE 6 9 1012.1 - 2.6 - Partly cloudy 10 - - - -
23/04:53pm 27.0 ESE 5 7 1012.2 - 2.6 - Partly cloudy 10 - - - -
23/04:30pm 26.3 ESE 6 9 1012.3 - 2.6 - Partly cloudy 10 - - - -
23/04:21pm 26.2 ESE 6 10 1012.3 - 2.6 - Partly cloudy 10 - - - -
23/04:07pm 26.0 ESE 9 12 1012.4 - 2.6 - Partly cloudy 6 - - - -
23/04:00pm 27.4 E 8 11 1010.7 - 1.8 - Cloudy 10 - - - -
23/03:30pm 26.8 E 9 12 1012.6 - 1.8 - Partly cloudy 10 - - - -
23/03:07pm 27.2 ESE 9 12 1012.8 - 1.8 - Partly cloudy 10 - - - -
23/03:00pm 27.2 ESE 9 12 1012.8 - 1.8 - Partly cloudy 10 - - - -
23/02:30pm 26.5 ESE 8 11 1013.3 - 1.8 - Partly cloudy 10 - - - -
23/02:15pm 25.6 ESE 8 11 1013.5 - 1.8 - Partly cloudy 10 - - - -
23/02:05pm 25.3 SE 9 11 1013.6 - 1.6 - Partly cloudy 10 - - - -
23/02:00pm 25.4 SE 9 11 1013.7 - 1.6 - Partly cloudy 8 - - - -
23/01:44pm 25.9 E 12 17 1013.8 - 1.4 - Partly cloudy 6 - - - -
23/01:41pm 25.9 ESE 11 17 1013.7 - 0.2 - Partly cloudy 10 - - - -
23/01:30pm 28.5 E 9 12 1013.8 - 0.2 - Partly cloudy 10 - - - -
23/01:00pm 28.6 ESE 9 12 1012.5 - 0.2 - Mostly clear 10 - - - -
23/12:35pm 28.1 ESE 8 12 1014.5 - 0.2 - Partly cloudy 10 - - - -
23/12:30pm 28.0 ESE 9 12 1014.6 - 0.2 - Partly cloudy 10 - - - -
23/12:00pm 28.1 ESE 8 11 1014.7 - 0.2 - Partly cloudy 10 - - - -
23/11:30am 27.6 SE 8 14 1014.9 - 0.2 - Partly cloudy 10 - - - -
23/11:18am 27.2 SE 9 14 1014.9 - 0.2 - Partly cloudy 10 - - - -
23/11:00am 27.1 SE 9 13 1014.9 - 0.2 - Partly cloudy 10 - - - -
23/10:48am 27.1 SE 9 13 1014.9 - 0.2 - Partly cloudy 10 - - - -
23/10:30am 27.3 SE 8 12 1014.8 - 0.2 - Partly cloudy 10 - - - -
23/10:00am 26.7 SE 10 13 1013.1 - 24.8 - Cloudy 10 - - - -
23/09:30am 26.4 SSE 7 10 1014.5 - 24.8 - Partly cloudy 10 - - - -
23/09:00am 26.4 SE 7 11 1014.4 - 24.8 - Partly cloudy 10 - - - -
23/08:35am 26.1 SE 6 9 1014.1 - 24.8 - Partly cloudy 10 - - - -
23/08:30am 25.8 SE 6 9 1014.0 - 24.8 - Partly cloudy 10 - - - -
23/08:00am 25.0 S 3 5 1013.4 - 24.8 - Partly cloudy 10 - - - -
23/07:30am 23.8 S 3 3 1013.2 - 24.8 - - 10 - - - -
23/07:00am 23.7 SSW 1 4 1011.2 - 24.8 - - 10 - - - -
23/06:30am 23.9 SW 2 4 1012.7 - 24.8 - - 10 - - - -
23/06:00am 23.9 SW 3 5 1012.6 - 24.8 - - 10 - - - -
23/05:30am 23.7 SW 4 5 1012.7 - 24.8 - - 10 - - - -
23/05:00am 23.7 SSE 2 5 1012.8 - 24.8 - - 10 - - - -
23/04:30am 23.7 SSE 1 3 1013.0 - 24.8 - - 10 - - - -
23/04:00am 23.6 SSE 1 3 1011.5 - 24.8 - - 10 - - - -
23/03:30am 23.8 SSE 3 4 1013.5 - 24.8 - Partly cloudy 10 - - - -
23/03:26am 23.8 SSE 3 4 1013.5 - 24.8 - Partly cloudy 10 - - - -
23/03:00am 24.0 S 4 7 1013.7 - 24.8 - Partly cloudy 10 - - - -
23/02:30am 24.0 S 3 6 1014.1 - 24.8 - Partly cloudy 10 - - - -
23/02:00am 24.0 SSE 5 9 1014.4 - 24.8 - Partly cloudy 10 - - - -
23/01:30am 24.1 S 5 10 1014.7 - 24.4 - Partly cloudy 10 - - - -
23/01:00am 24.3 SSE 6 10 1013.7 - 24.4 - Cloudy 10 - - - -
23/12:42am 24.5 SE 8 14 1015.5 - 24.4 - Partly cloudy 10 - - - -
23/12:30am 24.3 SSE 4 7 1015.5 - 24.4 - Partly cloudy 10 - - - -
23/12:00am 24.3 S 3 5 1015.7 - 24.4 - Partly cloudy 10 - - - -
 
Date/Time
WST
Temp
°C
Wind Pressure Rain since
9am
mm
Weather Cloud Vis
km
Sea
Height
m
Swell
Dir  Spd
kts
Gust
kts
hPa Trend Height
m
Period
s
Dir
22/11:30pm 24.2 S 3 5 1015.6 - 24.4 - Partly cloudy 10 - - - -
22/11:00pm 24.3 S 3 4 1015.1 - 24.2 - Partly cloudy 10 - - - -
22/10:42pm 24.4 S 1 4 1014.8 - 24.2 - Partly cloudy 10 - - - -
22/10:30pm 24.5 CALM 0 0 1014.9 - 24.2 - Partly cloudy 5 - - - -
22/10:18pm 24.4 S 1 3 1015.0 - 23.6 - Partly cloudy 6 - - - -
22/10:16pm 24.4 S 1 3 1015.0 - 23.6 - Partly cloudy 7 - - - -
22/10:00pm 24.5 CALM 0 0 1013.7 - 23.2 - Cloudy 5 - - - -
22/09:38pm 24.3 S 3 4 1015.4 - 21.8 - Partly cloudy 6 - - - -
22/09:30pm 24.4 S 3 5 1015.3 - 21.4 - Partly cloudy 10 - - - -
22/09:22pm 24.5 S 3 5 1015.2 - 21.2 - Partly cloudy 10 - - - -
22/09:03pm 24.7 S 3 5 1014.8 - 21.2 - Partly cloudy 10 - - - -
22/09:02pm 24.7 S 3 5 1014.8 - 21.2 - Partly cloudy 10 - - - -
22/09:00pm 24.8 S 3 5 1014.8 - 21.2 - Partly cloudy 10 - - - -
22/08:48pm 24.9 S 4 6 1014.8 - 21.0 - Partly cloudy 6 - - - -
22/08:30pm 25.0 CALM 0 0 1014.4 - 20.2 - Partly cloudy 10 - - - -
22/08:00pm 25.1 SW 1 4 1013.9 - 20.2 - Partly cloudy 10 - - - -
22/07:30pm 25.5 CALM 0 0 1013.5 - 20.2 - - 10 - - - -
22/07:00pm 26.5 SW 1 4 1011.5 - 20.2 - - 10 - - - -
22/06:30pm 27.2 SW 3 6 1012.7 - 20.2 - - 10 - - - -
22/06:00pm 27.1 W 4 7 1012.4 - 20.2 - Partly cloudy 10 - - - -
22/05:30pm 26.5 W 1 3 1012.1 - 20.2 - Partly cloudy 10 - - - -
22/05:00pm 27.0 W 3 5 1012.2 - 20.0 - Partly cloudy 10 - - - -
22/04:30pm 27.7 WNW 5 8 1012.5 - 19.8 - Partly cloudy 10 - - - -
22/04:00pm 27.5 WNW 5 7 1010.9 - 19.8 - Mostly cloudy 10 - - - -
22/03:30pm 26.5 W 4 6 1012.9 - 19.8 - Partly cloudy 10 - - - -
22/03:00pm 25.2 W 5 8 1013.1 - 19.8 - Partly cloudy 10 - - - -
22/02:30pm 27.5 W 1 4 1013.3 - 19.6 - Partly cloudy 10 - - - -
22/02:00pm 27.6 W 4 6 1013.7 - 19.6 - Partly cloudy 10 - - - -
22/01:30pm 28.1 W 1 4 1013.8 - 19.6 - Partly cloudy 10 - - - -
22/01:00pm 26.1 W 3 5 1012.6 - 19.4 - Cloudy 10 - - - -
22/12:56pm 25.9 W 3 6 1014.2 - 19.4 - Partly cloudy 10 - - - -
22/12:47pm 25.1 W 5 8 1014.2 - 19.4 - Partly cloudy 10 - - - -
22/12:30pm 24.8 WSW 6 9 1014.4 - 14.4 - Partly cloudy 4 - - - -
22/12:12pm 25.8 SW 4 7 1014.8 - 3.6 - Partly cloudy 5 - - - -
22/12:09pm 25.9 SW 5 10 1014.6 - 0.2 - Partly cloudy 10 - - - -
22/12:00pm 26.5 NNW 3 11 1014.6 - 0.0 - Partly cloudy 10 - - - -
22/11:30am 27.8 N 6 9 1014.6 - 0.0 - Partly cloudy 10 - - - -
22/11:00am 27.2 NW 5 7 1014.8 - 0.0 - Partly cloudy 10 - - - -
22/10:30am 27.1 CALM 0 0 1014.8 - 0.0 - Partly cloudy 10 - - - -
22/10:11am 27.0 NW 2 4 1014.7 - 0.0 - Partly cloudy 10 - - - -
22/10:00am 26.7 NW 3 4 1013.1 - 2.8 - Cloudy 10 - - - -
22/09:45am 27.1 NW 3 4 1014.7 - 2.8 - Partly cloudy 10 - - - -
22/09:30am 27.0 CALM 0 3 1014.6 - 2.8 - Cloudy 10 - - - -
22/09:00am 26.4 NW 4 6 1014.3 - 2.8 - Partly cloudy 10 - - - -
22/08:30am 25.8 NW 4 6 1013.9 - 2.8 - Partly cloudy 10 - - - -
22/08:00am 25.1 NW 4 5 1013.8 - 2.8 - - 10 - - - -
22/07:30am 24.9 NW 5 6 1013.3 - 2.8 - Partly cloudy 10 - - - -
22/07:00am 24.8 NW 4 5 1011.5 - 2.6 - Mostly clear 10 - - - -
22/06:30am 24.9 NW 4 5 1013.1 - 2.6 - Partly cloudy 10 - - - -
22/06:00am 24.7 NW 3 5 1012.9 - 2.6 - - 10 - - - -
22/05:30am 24.8 NW 4 6 1012.6 - 2.4 - - 10 - - - -
22/05:00am 24.9 NNW 4 6 1012.7 - 2.4 - Partly cloudy 10 - - - -
22/04:30am 25.2 NNW 5 6 1012.7 - 2.4 - Partly cloudy 10 - - - -
22/04:00am 24.9 NNW 4 5 1011.0 - 2.4 - Mostly clear 10 - - - -
22/03:30am 24.8 NW 5 6 1012.8 - 2.4 - - 10 - - - -
22/03:00am 24.5 NNW 4 5 1013.0 - 2.4 - Partly cloudy 10 - - - -
22/02:30am 24.6 NNW 3 4 1013.4 - 2.4 - Partly cloudy 10 - - - -
22/02:00am 24.6 NNW 3 5 1013.7 - 2.4 - - 10 - - - -
22/01:30am 24.8 NNW 4 5 1014.0 - 2.4 - - 10 - - - -
22/01:00am 24.9 NNW 4 6 1012.7 - 2.4 - - 10 - - - -
22/12:30am 24.9 NW 4 6 1014.5 - 2.4 - Partly cloudy 10 - - - -
22/12:00am 25.0 NW 3 4 1014.6 - 2.4 - Partly cloudy 10 - - - -
 
Date/Time
WST
Temp
°C
Wind Pressure Rain since
9am
mm
Weather Cloud Vis
km
Sea
Height
m
Swell
Dir  Spd
kts
Gust
kts
hPa Trend Height
m
Period
s
Dir
21/11:47pm 25.0 CALM 0 0 1014.8 - 2.4 - Partly cloudy 10 - - - -
21/11:31pm 25.0 NW 4 5 1014.8 - 2.2 - Partly cloudy 6 - - - -
21/11:30pm 25.0 NW 4 5 1014.7 - 2.0 - Partly cloudy 7 - - - -
21/11:00pm 25.0 NW 3 5 1014.6 - 1.0 - Partly cloudy 10 - - - -
21/10:30pm 25.1 NW 4 5 1014.2 - 1.0 - Partly cloudy 10 - - - -
21/10:00pm 25.0 NW 5 7 1012.4 - 1.0 - Partly cloudy 10 - - - -
21/09:30pm 24.5 NW 4 6 1013.8 - 1.0 - - 10 - - - -
21/09:00pm 24.4 NW 4 6 1013.4 - 1.0 - - 10 - - - -
21/08:30pm 24.6 NW 4 6 1013.2 - 1.0 - - 10 - - - -
21/08:00pm 24.5 NW 4 5 1012.8 - 1.0 - - 10 - - - -
21/07:30pm 24.6 NNW 4 5 1012.4 - 1.0 - Partly cloudy 10 - - - -
21/07:00pm 24.7 NNW 5 7 1010.1 - 1.0 - Mostly cloudy 10 - - - -
21/06:53pm 24.6 NW 6 8 1011.6 - 1.0 - Partly cloudy 10 - - - -
21/06:48pm 24.8 NNW 7 10 1011.6 - 1.0 - Partly cloudy 10 - - - -
21/06:38pm 25.2 NNW 9 14 1011.6 - 1.0 - Partly cloudy 6 - - - -
21/06:34pm 25.6 NNW 11 14 1011.5 - 0.6 - Partly cloudy 10 - - - -
21/06:30pm 26.4 N 8 10 1011.4 - 0.0 - Partly cloudy 10 - - - -
21/06:00pm 28.0 N 8 10 1011.2 - 0.0 - Partly cloudy 10 - - - -
21/05:30pm 28.0 N 9 13 1011.0 - 0.0 - Partly cloudy 10 - - - -
21/05:00pm - NNE 9 13 - - 0.0 - Partly cloudy 10 - - - -
21/04:55pm 28.1 NNE 8 12 1011.1 - 0.0 - Partly cloudy 10 - - - -
21/04:30pm 28.5 N 9 14 1011.3 - 0.0 - Partly cloudy 10 - - - -
21/04:00pm 28.1 NNE 8 12 1009.7 - 0.0 - Cloudy 10 - - - -
21/03:55pm 28.1 NNE 8 11 1011.4 - 0.0 - Partly cloudy 10 - - - -
21/03:50pm 28.1 NE 9 12 1011.3 - 0.0 - Partly cloudy 10 - - - -
21/03:30pm 28.6 NNE 8 12 1011.5 - 0.0 - Partly cloudy 10 - - - -
21/03:29pm 28.6 NNE 8 12 1011.5 - 0.0 - Partly cloudy 10 - - - -
21/03:00pm 29.0 N 9 12 1011.5 - 0.0 - Partly cloudy 10 - - - -
21/02:30pm 28.7 N 7 11 1011.9 - 0.0 - Partly cloudy 10 - - - -
21/02:08pm 28.2 N 8 11 1012.3 - 0.0 - Partly cloudy 10 - - - -
21/02:00pm 28.6 N 8 11 1012.3 - 0.0 - Partly cloudy 10 - - - -
21/01:51pm 28.0 NNE 9 13 1012.5 - 0.0 - Partly cloudy 10 - - - -
21/01:48pm 28.8 N 9 13 1012.5 - 0.0 - Partly cloudy 10 - - - -
21/01:30pm 29.0 N 8 13 1012.7 - 0.0 - Partly cloudy 10 - - - -
21/01:24pm 28.1 NNE 9 12 1012.8 - 0.0 - Partly cloudy 10 - - - -
21/01:00pm 27.9 NNE 8 11 1011.3 - 0.0 - Cloudy 10 - - - -
21/12:30pm 28.0 NE 8 11 1013.4 - 0.0 - Partly cloudy 10 - - - -
21/12:00pm 27.4 NE 7 9 1013.5 - 0.0 - - 10 - - - -
21/11:30am 27.2 NE 7 9 1013.6 - 0.0 - - 10 - - - -
21/11:00am 28.2 NE 6 8 1013.8 - 0.0 - - 10 - - - -
21/10:30am 27.6 ENE 5 7 1013.6 - 0.0 - - 10 - - - -
21/10:00am 26.9 WNW 4 5 1011.8 - 0.0 - - 10 - - - -
21/09:30am 26.4 WNW 4 5 1013.4 - 0.0 - - 10 - - - -
21/09:00am 26.6 WNW 5 6 1013.2 - 0.0 - - 10 - - - -
21/08:30am 25.4 CALM 0 3 1012.8 - 0.0 - - 10 - - - -
21/08:00am 23.0 CALM 0 0 1012.2 - 0.0 - - 10 - - - -
21/07:30am 22.2 CALM 0 0 1011.9 - 0.0 - - 10 - - - -
21/07:00am 22.0 CALM 0 0 1010.1 - 0.0 - - 10 - - - -
21/06:30am 22.0 CALM 0 0 1011.5 - 0.0 - - 10 - - - -
21/06:00am 21.9 CALM 0 0 1011.3 - 0.0 - - 10 - - - -
21/05:30am 22.2 WNW 3 4 1011.0 - 0.0 - - 10 - - - -
21/05:00am 22.2 WNW 3 4 1011.0 - 0.0 - - 10 - - - -
21/04:30am 22.3 WNW 3 4 1011.1 - 0.0 - - 10 - - - -
21/04:00am 22.2 WNW 3 4 1009.3 - 0.0 - - 10 - - - -
21/03:30am 22.4 WNW 3 4 1011.0 - 0.0 - - 10 - - - -
21/03:00am 22.4 WNW 2 4 1011.1 - 0.0 - - 10 - - - -
21/02:30am 22.5 WNW 3 4 1011.0 - 0.0 - - 10 - - - -
21/02:00am 22.6 WNW 3 4 1011.0 - 0.0 - - 10 - - - -
21/01:30am 22.7 WNW 3 4 1011.3 - 0.0 - - 10 - - - -
21/01:00am 22.7 WNW 3 4 1009.8 - 0.0 - - 10 - - - -
21/12:30am 22.7 WNW 3 3 1011.6 - 0.0 - - 10 - - - -
21/12:00am 22.8 CALM 0 0 1011.8 - 0.0 - - 10 - - - -
 
Date/Time
WST
Temp
°C
Wind Pressure Rain since
9am
mm
Weather Cloud Vis
km
Sea
Height
m
Swell
Dir  Spd
kts
Gust
kts
hPa Trend Height
m
Period
s
Dir
20/11:30pm 23.1 CALM 0 0 1011.8 - 0.0 - - 10 - - - -
20/11:00pm 23.6 WNW 3 5 1011.7 - 0.0 - - 10 - - - -
20/10:30pm 24.1 WNW 3 5 1011.6 - 0.0 - - 10 - - - -
20/10:00pm 24.6 WNW 4 5 1010.1 - 0.0 - - 10 - - - -
20/09:30pm 24.7 WNW 4 6 1011.5 - 0.0 - Partly cloudy 10 - - - -
20/09:00pm 24.9 WNW 4 6 1011.2 - 0.0 - - 10 - - - -

Other Formats:

Comma delimited format used in spreadsheet applications
http://www.bom.gov.au/fwo/IDW60701/IDW60701.96995.axf

JavaScript Object Notation format (JSON) in row-major order
http://www.bom.gov.au/fwo/IDW60701/IDW60701.96995.json